Time;durP1;ratioP1;P1;durP2;ratioP2;P2;SDS_P1;SDS_P2;PMS_P1;PMS_P2;Temp;Humidity;BMP_temperature;BMP_pressure;BME280_temperature;BME280_humidity;BME280_pressure;Samples;Min_cycle;Max_cycle;Signal;HPM_P1;HPM_P2
2022/08/23 00:00:41;;;;;;;;;;;19.40;99.90;;;;;;5044539;28;20400;-72
2022/08/23 00:03:08;;;;;;;;;;;19.40;99.90;;;;;;5034699;28;20024;-72
2022/08/23 00:05:34;;;;;;;;;;;19.40;99.90;;;;;;5034835;28;19925;-72
2022/08/23 00:08:01;;;;;;;;;;;19.30;99.90;;;;;;5033019;28;19936;-73
2022/08/23 00:10:30;;;;;;;;;;;19.20;99.90;;;;;;5040382;28;20403;-73
2022/08/23 00:12:56;;;;;;;;;;;19.20;99.90;;;;;;5039705;28;19925;-72
2022/08/23 00:15:24;;;;;;;;;;;19.20;99.90;;;;;;5041625;28;19971;-72
2022/08/23 00:17:50;;;;;;;;;;;19.10;99.90;;;;;;5044878;28;19929;-72
2022/08/23 00:20:19;;;;;;;;;;;19.00;99.90;;;;;;5036192;28;19931;-72
2022/08/23 00:22:45;;;;;;;;;;;18.80;99.90;;;;;;5041126;28;19925;-71
2022/08/23 00:25:13;;;;;;;;;;;18.80;99.90;;;;;;5040981;28;20348;-70
2022/08/23 00:27:41;;;;;;;;;;;18.70;99.90;;;;;;5038514;28;19928;-72
2022/08/23 00:30:09;;;;;;;;;;;18.60;99.90;;;;;;5040916;28;19928;-72
2022/08/23 00:32:37;;;;;;;;;;;18.50;99.90;;;;;;5043201;28;20007;-72
2022/08/23 00:35:04;;;;;;;;;;;18.60;99.90;;;;;;5039302;28;20339;-72
2022/08/23 00:37:32;;;;;;;;;;;18.50;99.90;;;;;;5042045;28;19960;-70
2022/08/23 00:39:59;;;;;;;;;;;18.40;99.90;;;;;;5039338;28;19925;-73
2022/08/23 00:48:00;;;;;;;;;;;18.30;99.90;;;;;;5032655;28;20320;-72
2022/08/23 00:50:29;;;;;;;;;;;18.30;99.90;;;;;;5045354;28;19932;-72
2022/08/23 00:52:59;;;;;;;;;;;18.20;99.90;;;;;;5032769;28;19925;-73
2022/08/23 00:55:27;;;;;;;;;;;18.20;99.90;;;;;;5041339;28;20056;-72
2022/08/23 00:57:54;;;;;;;;;;;18.20;99.90;;;;;;5032696;28;20413;-73
2022/08/23 01:00:22;;;;;;;;;;;18.20;99.90;;;;;;5038286;28;19925;-72
2022/08/23 01:02:50;;;;;;;;;;;18.10;99.90;;;;;;5030518;28;19924;-73
2022/08/23 01:05:18;;;;;;;;;;;18.10;99.90;;;;;;5047661;28;19925;-72
2022/08/23 01:07:47;;;;;;;;;;;18.10;99.90;;;;;;5037588;28;19925;-72
2022/08/23 01:10:17;;;;;;;;;;;18.00;99.90;;;;;;5039231;28;19979;-72
2022/08/23 01:12:46;;;;;;;;;;;18.00;99.90;;;;;;5036054;28;19924;-73
2022/08/23 01:15:16;;;;;;;;;;;17.90;99.90;;;;;;5037132;28;19987;-73
2022/08/23 01:17:46;;;;;;;;;;;17.90;99.90;;;;;;5035332;28;19929;-72
2022/08/23 01:20:15;;;;;;;;;;;17.90;99.90;;;;;;5034718;28;19929;-73
2022/08/23 01:22:46;;;;;;;;;;;17.80;99.90;;;;;;5035124;28;19983;-72
2022/08/23 01:25:16;;;;;;;;;;;17.70;99.90;;;;;;5044249;28;19929;-72
2022/08/23 01:27:44;;;;;;;;;;;17.70;99.90;;;;;;5035215;28;19975;-72
2022/08/23 01:30:16;;;;;;;;;;;17.70;99.90;;;;;;5037246;28;20026;-72
2022/08/23 01:32:45;;;;;;;;;;;17.70;99.90;;;;;;5040545;28;19933;-72
2022/08/23 01:35:12;;;;;;;;;;;17.60;99.90;;;;;;5043391;28;20301;-73
2022/08/23 01:37:39;;;;;;;;;;;17.60;99.90;;;;;;5041946;28;19925;-73
2022/08/23 01:40:06;;;;;;;;;;;17.60;99.90;;;;;;5043432;28;19932;-73
2022/08/23 01:42:34;;;;;;;;;;;17.60;99.90;;;;;;5025272;28;19929;-73
2022/08/23 01:45:01;;;;;;;;;;;17.50;99.90;;;;;;5038000;28;20380;-73
2022/08/23 01:47:30;;;;;;;;;;;17.50;99.90;;;;;;5037285;28;19925;-71
2022/08/23 01:49:58;;;;;;;;;;;17.40;99.90;;;;;;5031576;28;19925;-73
2022/08/23 01:52:26;;;;;;;;;;;17.40;99.90;;;;;;5040164;28;20339;-73
2022/08/23 01:54:54;;;;;;;;;;;17.40;99.90;;;;;;5043119;28;19925;-73
2022/08/23 01:57:21;;;;;;;;;;;17.30;99.90;;;;;;5037487;28;19975;-73
2022/08/23 01:59:49;;;;;;;;;;;17.30;99.90;;;;;;5025369;28;20029;-73
2022/08/23 02:02:16;;;;;;;;;;;17.30;99.90;;;;;;5039233;28;19931;-73
2022/08/23 02:04:43;;;;;;;;;;;17.20;99.90;;;;;;5034302;28;19932;-72
2022/08/23 02:07:10;;;;;;;;;;;17.20;99.90;;;;;;5043179;28;19935;-72
2022/08/23 02:09:37;;;;;;;;;;;17.20;99.90;;;;;;5034836;28;19948;-72
2022/08/23 02:12:05;;;;;;;;;;;17.20;99.90;;;;;;5034133;28;19940;-73
2022/08/23 02:14:32;;;;;;;;;;;17.10;99.90;;;;;;5035164;28;19925;-72
2022/08/23 02:17:01;;;;;;;;;;;17.10;99.90;;;;;;5034884;28;19925;-73
2022/08/23 02:19:28;;;;;;;;;;;17.10;99.90;;;;;;5031641;28;19925;-73
2022/08/23 02:21:55;;;;;;;;;;;17.10;99.90;;;;;;5040178;28;20350;-73
2022/08/23 02:24:23;;;;;;;;;;;17.00;99.90;;;;;;5036096;28;19931;-73
2022/08/23 02:26:51;;;;;;;;;;;17.00;99.90;;;;;;5045352;28;19925;-73
2022/08/23 02:29:19;;;;;;;;;;;17.00;99.90;;;;;;5030423;28;19929;-73
2022/08/23 02:31:46;;;;;;;;;;;16.90;99.90;;;;;;5032673;28;19964;-73
2022/08/23 02:34:15;;;;;;;;;;;16.70;99.90;;;;;;5042774;28;19933;-73
2022/08/23 02:36:42;;;;;;;;;;;16.70;99.90;;;;;;5040042;28;19960;-73
2022/08/23 02:39:10;;;;;;;;;;;16.70;99.90;;;;;;5031609;28;19983;-73
2022/08/23 02:41:37;;;;;;;;;;;16.70;99.90;;;;;;5038117;28;20309;-72
2022/08/23 02:44:07;;;;;;;;;;;16.70;99.90;;;;;;5039112;28;19929;-73
2022/08/23 02:46:34;;;;;;;;;;;16.70;99.90;;;;;;5039360;28;19932;-73
2022/08/23 02:49:01;;;;;;;;;;;16.70;99.90;;;;;;5040774;28;19925;-72
2022/08/23 02:51:29;;;;;;;;;;;16.80;99.90;;;;;;5039106;28;19925;-73
2022/08/23 02:53:56;;;;;;;;;;;16.80;99.90;;;;;;5041151;28;19925;-73
2022/08/23 02:56:24;;;;;;;;;;;16.70;99.90;;;;;;5035936;28;19925;-73
2022/08/23 02:58:51;;;;;;;;;;;16.70;99.90;;;;;;5039187;28;20126;-70
2022/08/23 03:01:20;;;;;;;;;;;16.60;99.90;;;;;;5031665;28;19965;-72
2022/08/23 03:03:50;;;;;;;;;;;16.60;99.90;;;;;;5027732;28;19925;-73
2022/08/23 03:06:16;;;;;;;;;;;16.60;99.90;;;;;;5039333;28;20273;-73
2022/08/23 03:08:45;;;;;;;;;;;16.50;99.90;;;;;;5032761;28;19929;-74
2022/08/23 03:11:13;;;;;;;;;;;16.50;99.90;;;;;;5035821;28;19932;-73
2022/08/23 03:13:41;;;;;;;;;;;16.50;99.90;;;;;;5035161;28;20024;-72
2022/08/23 03:16:08;;;;;;;;;;;16.50;99.90;;;;;;5038083;28;19933;-72
2022/08/23 03:18:35;;;;;;;;;;;16.50;99.90;;;;;;5035706;28;19925;-72
2022/08/23 03:21:04;;;;;;;;;;;16.50;99.90;;;;;;5041331;28;19925;-72
2022/08/23 03:23:31;;;;;;;;;;;16.40;99.90;;;;;;5036464;28;19925;-73
2022/08/23 03:26:00;;;;;;;;;;;16.40;99.90;;;;;;5038833;28;19944;-73
2022/08/23 03:28:29;;;;;;;;;;;16.40;99.90;;;;;;5042670;28;19932;-73
2022/08/23 03:30:56;;;;;;;;;;;16.40;99.90;;;;;;5063121;23;19948;-70
2022/08/23 03:33:23;;;;;;;;;;;16.40;99.90;;;;;;5060334;28;19932;-70
2022/08/23 03:35:50;;;;;;;;;;;16.40;99.90;;;;;;5054400;28;19986;-70
2022/08/23 03:38:18;;;;;;;;;;;16.30;99.90;;;;;;5053780;28;20047;-70
2022/08/23 03:40:45;;;;;;;;;;;16.30;99.90;;;;;;5056234;28;19931;-70
2022/08/23 03:43:13;;;;;;;;;;;16.30;99.90;;;;;;5050995;28;19929;-70
2022/08/23 03:45:40;;;;;;;;;;;16.30;99.90;;;;;;5065411;28;19988;-71
2022/08/23 03:48:08;;;;;;;;;;;16.30;99.90;;;;;;5063390;28;20016;-70
2022/08/23 03:50:38;;;;;;;;;;;16.30;99.90;;;;;;5060386;28;19924;-70
2022/08/23 03:53:05;;;;;;;;;;;16.20;99.90;;;;;;5056783;28;19925;-71
2022/08/23 03:55:32;;;;;;;;;;;16.10;99.90;;;;;;5052559;28;19956;-70
2022/08/23 03:57:59;;;;;;;;;;;16.10;99.90;;;;;;5062416;28;19931;-70
2022/08/23 04:00:27;;;;;;;;;;;16.10;99.90;;;;;;5053297;28;19925;-70
2022/08/23 04:02:55;;;;;;;;;;;16.10;99.90;;;;;;5053834;28;19925;-70
2022/08/23 04:05:23;;;;;;;;;;;16.20;99.90;;;;;;5054089;28;19948;-70
2022/08/23 04:07:50;;;;;;;;;;;16.20;99.90;;;;;;5048870;28;19986;-70
2022/08/23 04:10:20;;;;;;;;;;;16.20;99.90;;;;;;5053356;28;20031;-71
2022/08/23 04:12:51;;;;;;;;;;;16.20;99.90;;;;;;5059770;28;19928;-67
2022/08/23 04:15:19;;;;;;;;;;;16.20;99.90;;;;;;5054559;28;19925;-70
2022/08/23 04:17:48;;;;;;;;;;;16.20;99.90;;;;;;5082960;28;20388;-69
2022/08/23 04:20:16;;;;;;;;;;;16.20;99.90;;;;;;5054215;28;19925;-69
2022/08/23 04:22:59;;;;;;;;;;;16.20;99.90;;;;;;5056433;28;19925;-69
2022/08/23 04:25:32;;;;;;;;;;;16.20;99.90;;;;;;5055482;28;19924;-69
2022/08/23 04:27:59;;;;;;;;;;;16.20;99.90;;;;;;5055884;28;19925;-69
2022/08/23 04:30:27;;;;;;;;;;;16.20;99.90;;;;;;5060488;28;19924;-69
2022/08/23 04:32:56;;;;;;;;;;;16.20;99.90;;;;;;5050686;28;19932;-67
2022/08/23 04:35:24;;;;;;;;;;;16.30;99.90;;;;;;5055134;28;20382;-70
2022/08/23 04:37:51;;;;;;;;;;;16.40;99.90;;;;;;5053013;28;19987;-69
2022/08/23 04:43:02;;;;;;;;;;;16.40;99.90;;;;;;5050162;28;20376;-67
2022/08/23 04:45:31;;;;;;;;;;;16.40;99.90;;;;;;5051645;28;19925;-69
2022/08/23 04:47:59;;;;;;;;;;;16.40;99.90;;;;;;5048685;28;19929;-70
2022/08/23 04:50:27;;;;;;;;;;;16.40;99.90;;;;;;5051890;28;20373;-69
2022/08/23 04:53:16;;;;;;;;;;;16.40;99.90;;;;;;5049833;28;20320;-69
2022/08/23 04:55:52;;;;;;;;;;;16.40;99.90;;;;;;5048868;28;20039;-69
2022/08/23 04:58:18;;;;;;;;;;;16.40;99.90;;;;;;5052076;28;19960;-70
2022/08/23 05:00:52;;;;;;;;;;;16.40;99.90;;;;;;5050806;28;20019;-69
2022/08/23 05:03:26;;;;;;;;;;;16.40;99.90;;;;;;5043963;28;19933;-70
2022/08/23 05:05:55;;;;;;;;;;;16.50;99.90;;;;;;5052582;28;19925;-70
2022/08/23 05:08:27;;;;;;;;;;;16.50;99.90;;;;;;5045532;28;19925;-68
2022/08/23 05:10:55;;;;;;;;;;;16.50;99.90;;;;;;5047829;28;19925;-68
2022/08/23 05:13:22;;;;;;;;;;;16.50;99.90;;;;;;5048232;28;19929;-69
2022/08/23 05:15:51;;;;;;;;;;;16.50;99.90;;;;;;5044479;28;20367;-69
2022/08/23 05:18:19;;;;;;;;;;;16.50;99.90;;;;;;5048674;28;19925;-69
2022/08/23 05:20:47;;;;;;;;;;;16.50;99.90;;;;;;5051982;28;19979;-68
2022/08/23 05:23:14;;;;;;;;;;;16.60;99.90;;;;;;5051364;28;19975;-69
2022/08/23 05:25:49;;;;;;;;;;;16.60;99.90;;;;;;5044554;28;19968;-69
2022/08/23 05:28:24;;;;;;;;;;;16.70;99.90;;;;;;5050537;28;20408;-69
2022/08/23 05:30:56;;;;;;;;;;;16.80;99.90;;;;;;5039899;28;19928;-69
2022/08/23 05:33:33;;;;;;;;;;;16.90;99.90;;;;;;5051559;28;19924;-70
2022/08/23 05:36:02;;;;;;;;;;;17.00;99.90;;;;;;5049524;28;19925;-72
2022/08/23 05:38:29;;;;;;;;;;;17.00;99.90;;;;;;5049631;28;19957;-71
2022/08/23 05:41:00;;;;;;;;;;;17.10;99.90;;;;;;5060660;28;19925;-71
2022/08/23 05:43:28;;;;;;;;;;;17.20;99.90;;;;;;5051920;28;20023;-74
2022/08/23 05:46:03;;;;;;;;;;;17.30;99.90;;;;;;5058121;28;19928;-70
2022/08/23 05:48:30;;;;;;;;;;;17.40;99.90;;;;;;5049067;28;20408;-71
2022/08/23 05:51:09;;;;;;;;;;;17.50;99.90;;;;;;5050987;28;19932;-70
2022/08/23 05:53:36;;;;;;;;;;;17.50;99.90;;;;;;5054748;28;19990;-69
2022/08/23 05:56:08;;;;;;;;;;;17.60;99.90;;;;;;5049513;28;20303;-70
2022/08/23 05:58:35;;;;;;;;;;;17.60;99.90;;;;;;5048963;28;19929;-71
2022/08/23 06:01:02;;;;;;;;;;;17.70;99.90;;;;;;5053397;28;19952;-71
2022/08/23 06:03:29;;;;;;;;;;;17.80;99.90;;;;;;5051266;28;19925;-70
2022/08/23 06:05:57;;;;;;;;;;;17.90;99.90;;;;;;5055030;28;20291;-71
2022/08/23 06:08:25;;;;;;;;;;;18.00;99.90;;;;;;5050793;28;20389;-71
2022/08/23 06:10:58;;;;;;;;;;;18.10;99.90;;;;;;5054704;28;19929;-71
2022/08/23 06:13:27;;;;;;;;;;;18.20;99.90;;;;;;5061831;28;19932;-70
2022/08/23 06:15:56;;;;;;;;;;;18.30;99.90;;;;;;5052886;28;20558;-71
2022/08/23 06:18:23;;;;;;;;;;;18.50;99.90;;;;;;5057686;28;19925;-70
2022/08/23 06:21:01;;;;;;;;;;;18.60;99.90;;;;;;5052794;28;19925;-71
2022/08/23 06:23:41;;;;;;;;;;;18.70;99.90;;;;;;5058451;28;20334;-71
2022/08/23 06:26:11;;;;;;;;;;;18.80;99.90;;;;;;5051894;28;20442;-71
2022/08/23 06:28:38;;;;;;;;;;;18.90;99.90;;;;;;5050821;28;19924;-71
2022/08/23 06:31:06;;;;;;;;;;;19.00;99.90;;;;;;5052486;28;19925;-71
2022/08/23 06:33:36;;;;;;;;;;;19.00;99.90;;;;;;5051030;28;19925;-72
2022/08/23 06:36:22;;;;;;;;;;;19.00;99.90;;;;;;5055452;28;19948;-70
2022/08/23 06:39:05;;;;;;;;;;;19.10;99.90;;;;;;5038761;28;19928;-71
2022/08/23 06:41:59;;;;;;;;;;;19.10;99.90;;;;;;5049419;28;19925;-71
2022/08/23 06:44:28;;;;;;;;;;;19.20;99.90;;;;;;5050680;28;20018;-71
2022/08/23 06:47:01;;;;;;;;;;;19.20;99.90;;;;;;5052978;28;19924;-71
2022/08/23 06:49:28;;;;;;;;;;;19.30;99.90;;;;;;5050225;28;20416;-71
2022/08/23 06:51:56;;;;;;;;;;;19.40;99.90;;;;;;5052791;28;19925;-71
2022/08/23 06:54:38;;;;;;;;;;;19.50;99.90;;;;;;5051715;28;20418;-72
2022/08/23 06:57:28;;;;;;;;;;;19.60;99.90;;;;;;5042743;28;19978;-72
2022/08/23 07:00:18;;;;;;;;;;;19.80;99.90;;;;;;5046754;28;19947;-71
2022/08/23 07:02:57;;;;;;;;;;;19.90;99.90;;;;;;5048762;28;19932;-72
2022/08/23 07:05:49;;;;;;;;;;;20.00;99.90;;;;;;5047282;28;20299;-72
2022/08/23 07:08:25;;;;;;;;;;;20.20;99.90;;;;;;5061309;28;20075;-72
2022/08/23 07:10:55;;;;;;;;;;;20.30;99.90;;;;;;5047202;28;19924;-72
2022/08/23 07:13:22;;;;;;;;;;;20.40;99.90;;;;;;5041685;28;19925;-72
2022/08/23 07:15:49;;;;;;;;;;;20.50;99.90;;;;;;5042077;28;19925;-71
2022/08/23 07:18:17;;;;;;;;;;;20.60;99.90;;;;;;5043277;28;19932;-72
2022/08/23 07:20:43;;;;;;;;;;;20.70;99.90;;;;;;5049495;28;20356;-71
2022/08/23 07:23:10;;;;;;;;;;;20.80;99.90;;;;;;5046255;28;20036;-71
2022/08/23 07:25:39;;;;;;;;;;;20.90;99.90;;;;;;5048655;28;20023;-72
2022/08/23 07:28:11;;;;;;;;;;;21.00;99.90;;;;;;5049866;28;19970;-71
2022/08/23 07:30:37;;;;;;;;;;;21.10;99.90;;;;;;5049424;28;19925;-72
2022/08/23 07:33:05;;;;;;;;;;;21.30;99.90;;;;;;5050391;28;19935;-72
2022/08/23 07:35:33;;;;;;;;;;;21.40;99.90;;;;;;5047898;28;19929;-72
2022/08/23 07:38:01;;;;;;;;;;;21.50;99.90;;;;;;5051575;28;20430;-72
2022/08/23 07:40:33;;;;;;;;;;;21.70;99.90;;;;;;5057511;28;20013;-72
2022/08/23 07:43:02;;;;;;;;;;;21.80;99.90;;;;;;5050511;28;19925;-72
2022/08/23 07:45:30;;;;;;;;;;;22.00;99.90;;;;;;5054696;28;19928;-72
2022/08/23 07:48:00;;;;;;;;;;;22.10;99.90;;;;;;5042571;28;19925;-72
2022/08/23 07:50:28;;;;;;;;;;;22.30;99.90;;;;;;5053928;28;20378;-72
2022/08/23 07:52:55;;;;;;;;;;;22.50;99.90;;;;;;5050151;28;20384;-72
2022/08/23 07:55:22;;;;;;;;;;;22.60;99.90;;;;;;5052086;28;19924;-70
2022/08/23 07:58:08;;;;;;;;;;;22.90;99.90;;;;;;5045998;28;19935;-72
2022/08/23 08:00:57;;;;;;;;;;;23.00;99.90;;;;;;5055872;28;20003;-72
2022/08/23 08:03:42;;;;;;;;;;;23.20;99.90;;;;;;5061094;28;19968;-71
2022/08/23 08:06:21;;;;;;;;;;;23.30;99.90;;;;;;5051177;28;19929;-72
2022/08/23 08:08:48;;;;;;;;;;;23.40;99.90;;;;;;5049067;28;19926;-71
2022/08/23 08:11:17;;;;;;;;;;;23.50;99.90;;;;;;5049399;28;19924;-72
2022/08/23 08:13:44;;;;;;;;;;;23.70;99.90;;;;;;5053152;28;19979;-71
2022/08/23 08:16:19;;;;;;;;;;;23.80;99.90;;;;;;5048958;28;19953;-71
2022/08/23 08:18:46;;;;;;;;;;;23.90;99.90;;;;;;5053011;28;19925;-72
2022/08/23 08:21:31;;;;;;;;;;;24.00;99.90;;;;;;5052362;28;19932;-72
2022/08/23 08:24:18;;;;;;;;;;;24.10;99.90;;;;;;5050277;28;19932;-72
2022/08/23 08:26:49;;;;;;;;;;;24.20;99.90;;;;;;5052626;28;19925;-72
2022/08/23 08:29:16;;;;;;;;;;;24.40;99.90;;;;;;5048616;28;20016;-72
2022/08/23 08:31:47;;;;;;;;;;;24.40;99.90;;;;;;5051159;28;20300;-71
2022/08/23 08:34:14;;;;;;;;;;;24.50;99.90;;;;;;5052855;28;19931;-71
2022/08/23 08:36:44;;;;;;;;;;;24.50;99.90;;;;;;5053017;28;19924;-71
2022/08/23 08:39:18;;;;;;;;;;;24.60;99.90;;;;;;5056103;28;19951;-72
2022/08/23 08:41:54;;;;;;;;;;;24.70;99.90;;;;;;5058921;28;19931;-71
2022/08/23 08:44:29;;;;;;;;;;;24.70;99.90;;;;;;5055667;28;19925;-71
2022/08/23 08:46:58;;;;;;;;;;;24.80;99.90;;;;;;5050871;28;19925;-71
2022/08/23 08:49:32;;;;;;;;;;;24.90;99.90;;;;;;5062212;28;19925;-71
2022/08/23 08:52:01;;;;;;;;;;;24.90;99.90;;;;;;5040246;28;19925;-71
2022/08/23 08:54:31;;;;;;;;;;;25.00;99.90;;;;;;5053007;28;19932;-71
2022/08/23 08:57:00;;;;;;;;;;;25.10;99.90;;;;;;5051343;28;19925;-71
2022/08/23 08:59:32;;;;;;;;;;;25.20;99.90;;;;;;5054931;28;20036;-71
2022/08/23 09:02:01;;;;;;;;;;;25.20;99.90;;;;;;5054556;28;19925;-71
2022/08/23 09:04:36;;;;;;;;;;;25.20;99.90;;;;;;5053893;28;19928;-71
2022/08/23 09:07:09;;;;;;;;;;;25.20;99.90;;;;;;5054248;28;20304;-71
2022/08/23 09:09:48;;;;;;;;;;;25.30;99.90;;;;;;5049379;28;19925;-70
2022/08/23 09:12:22;;;;;;;;;;;25.40;99.90;;;;;;5048900;28;19924;-71
2022/08/23 09:14:56;;;;;;;;;;;25.40;99.90;;;;;;5051637;28;20383;-71
2022/08/23 09:17:28;;;;;;;;;;;25.50;99.90;;;;;;5047502;28;19924;-71
2022/08/23 09:19:57;;;;;;;;;;;25.50;99.90;;;;;;5051491;28;19932;-72
2022/08/23 09:22:28;;;;;;;;;;;25.60;99.90;;;;;;5052191;28;19944;-71
2022/08/23 09:24:57;;;;;;;;;;;25.60;99.90;;;;;;5066486;28;19924;-71
2022/08/23 09:27:27;;;;;;;;;;;25.60;99.90;;;;;;5050703;28;19935;-71
2022/08/23 09:29:57;;;;;;;;;;;25.60;99.90;;;;;;5050363;28;20331;-71
2022/08/23 09:32:34;;;;;;;;;;;25.70;99.90;;;;;;5051183;28;19929;-71
2022/08/23 09:35:10;;;;;;;;;;;25.80;99.90;;;;;;5052504;28;20002;-71
2022/08/23 09:37:49;;;;;;;;;;;25.90;99.90;;;;;;5051301;28;19979;-71
2022/08/23 09:40:17;;;;;;;;;;;26.00;99.90;;;;;;5058277;28;19932;-71
2022/08/23 09:42:46;;;;;;;;;;;26.00;99.90;;;;;;5051350;28;19936;-71
2022/08/23 09:45:25;;;;;;;;;;;26.10;99.90;;;;;;5056815;28;19970;-71
2022/08/23 09:47:53;;;;;;;;;;;26.10;99.90;;;;;;5050441;28;20015;-71
2022/08/23 09:50:25;;;;;;;;;;;26.20;99.90;;;;;;5049278;28;19925;-71
2022/08/23 09:52:55;;;;;;;;;;;26.30;99.90;;;;;;5057541;28;19932;-71
2022/08/23 09:55:27;;;;;;;;;;;26.40;99.90;;;;;;5052454;28;19924;-71
2022/08/23 09:57:54;;;;;;;;;;;26.40;99.90;;;;;;5043440;28;19936;-69
2022/08/23 10:00:24;;;;;;;;;;;26.50;99.90;;;;;;5053689;28;19971;-72
2022/08/23 10:02:56;;;;;;;;;;;26.50;99.90;;;;;;5049041;28;19947;-72
2022/08/23 10:05:31;;;;;;;;;;;26.60;99.90;;;;;;5051546;28;19932;-73
2022/08/23 10:07:59;;;;;;;;;;;26.80;99.90;;;;;;5055313;28;19924;-72
2022/08/23 10:10:31;;;;;;;;;;;26.80;99.90;;;;;;5043196;28;19953;-72
2022/08/23 10:13:02;;;;;;;;;;;26.80;99.90;;;;;;5046096;28;20329;-72
2022/08/23 10:15:40;;;;;;;;;;;26.90;99.90;;;;;;5039921;28;20012;-72
2022/08/23 10:18:11;;;;;;;;;;;27.00;99.90;;;;;;5038520;28;20377;-72
2022/08/23 10:20:44;;;;;;;;;;;27.00;99.90;;;;;;5041151;28;19925;-72
2022/08/23 10:23:19;;;;;;;;;;;27.10;99.90;;;;;;5041862;28;19974;-71
2022/08/23 10:25:54;;;;;;;;;;;27.20;99.90;;;;;;5062668;28;19925;-72
2022/08/23 10:31:14;;;;;;;;;;;27.40;99.90;;;;;;5044732;28;19929;-72
2022/08/23 10:33:49;;;;;;;;;;;27.30;99.90;;;;;;5049997;28;20120;-72
2022/08/23 10:36:19;;;;;;;;;;;27.30;99.90;;;;;;5049082;28;19925;-71
2022/08/23 10:38:50;;;;;;;;;;;27.40;99.90;;;;;;5054005;28;19925;-69
2022/08/23 10:41:31;;;;;;;;;;;27.40;99.90;;;;;;5050575;28;19925;-71
2022/08/23 10:44:03;;;;;;;;;;;27.30;99.90;;;;;;5043954;28;19925;-72
2022/08/23 10:46:32;;;;;;;;;;;27.50;99.90;;;;;;5050503;28;20380;-72
2022/08/23 10:49:01;;;;;;;;;;;27.60;99.90;;;;;;5050265;28;19924;-73
2022/08/23 10:51:32;;;;;;;;;;;27.80;99.90;;;;;;5050528;28;19925;-72
2022/08/23 10:54:02;;;;;;;;;;;27.90;99.90;;;;;;5046820;28;19925;-73
2022/08/23 10:56:29;;;;;;;;;;;28.00;99.90;;;;;;5050509;28;19975;-72
2022/08/23 10:58:59;;;;;;;;;;;28.20;99.90;;;;;;5050541;28;19925;-73
2022/08/23 11:01:29;;;;;;;;;;;28.60;99.90;;;;;;5050335;28;19925;-73
2022/08/23 11:04:02;;;;;;;;;;;28.90;99.90;;;;;;5050398;28;19932;-73
2022/08/23 11:06:44;;;;;;;;;;;29.30;99.90;;;;;;5050428;28;20150;-73
2022/08/23 11:09:32;;;;;;;;;;;29.50;99.90;;;;;;5050002;28;19924;-73
2022/08/23 11:12:06;;;;;;;;;;;29.60;99.90;;;;;;5044174;28;19968;-73
2022/08/23 11:14:36;;;;;;;;;;;29.80;99.90;;;;;;5050700;28;19960;-73
2022/08/23 11:17:05;;;;;;;;;;;29.60;99.90;;;;;;5044470;28;19924;-73
2022/08/23 11:19:51;;;;;;;;;;;30.10;99.90;;;;;;5046767;28;19932;-73
2022/08/23 11:22:20;;;;;;;;;;;30.60;99.90;;;;;;5050414;28;19925;-72
2022/08/23 11:24:50;;;;;;;;;;;30.60;99.90;;;;;;5043527;28;19925;-73
2022/08/23 11:27:31;;;;;;;;;;;30.10;99.90;;;;;;5050406;28;20445;-73
2022/08/23 11:30:18;;;;;;;;;;;30.20;99.90;;;;;;5042992;28;20401;-74
2022/08/23 11:32:55;;;;;;;;;;;30.70;99.90;;;;;;5047161;28;20016;-73
2022/08/23 11:35:37;;;;;;;;;;;32.50;99.90;;;;;;5052586;28;20414;-74
2022/08/23 11:38:05;;;;;;;;;;;34.10;99.90;;;;;;5050000;28;19931;-73
2022/08/23 11:40:41;;;;;;;;;;;36.70;99.90;;;;;;5055298;28;19924;-74
2022/08/23 11:43:11;;;;;;;;;;;38.20;99.90;;;;;;5054272;28;19924;-73
2022/08/23 11:45:45;;;;;;;;;;;39.10;99.90;;;;;;5060611;28;19947;-74
2022/08/23 11:48:14;;;;;;;;;;;38.20;99.90;;;;;;5059006;28;19928;-73
2022/08/23 11:50:55;;;;;;;;;;;39.60;99.90;;;;;;5053738;28;19926;-74
2022/08/23 11:53:31;;;;;;;;;;;38.00;99.90;;;;;;5050961;28;19932;-73
2022/08/23 11:56:16;;;;;;;;;;;36.30;99.90;;;;;;5050323;28;19928;-74
2022/08/23 11:59:00;;;;;;;;;;;35.30;99.90;;;;;;5058680;28;19933;-74
2022/08/23 12:01:28;;;;;;;;;;;35.10;99.90;;;;;;5056337;28;19929;-73
2022/08/23 12:03:57;;;;;;;;;;;34.20;99.90;;;;;;5062563;28;19932;-73
2022/08/23 12:06:41;;;;;;;;;;;34.10;99.90;;;;;;5067382;28;19924;-74
2022/08/23 12:09:14;;;;;;;;;;;33.80;99.90;;;;;;5057299;28;19924;-74
2022/08/23 12:11:56;;;;;;;;;;;33.40;99.90;;;;;;5053122;28;20384;-73
2022/08/23 12:14:35;;;;;;;;;;;33.80;99.90;;;;;;5052148;28;20404;-74
2022/08/23 12:17:03;;;;;;;;;;;36.10;99.90;;;;;;5053511;28;19931;-74
2022/08/23 12:19:32;;;;;;;;;;;37.10;99.90;;;;;;5049306;28;19928;-74
2022/08/23 12:22:05;;;;;;;;;;;36.90;99.90;;;;;;5059822;28;20023;-73
2022/08/23 12:24:41;;;;;;;;;;;36.30;99.90;;;;;;5052513;28;19925;-74
2022/08/23 12:27:11;;;;;;;;;;;35.90;99.90;;;;;;5051663;28;19928;-73
2022/08/23 12:29:42;;;;;;;;;;;35.80;99.90;;;;;;5052386;28;19925;-73
2022/08/23 12:32:15;;;;;;;;;;;36.50;99.90;;;;;;5047188;28;19925;-74
2022/08/23 12:34:47;;;;;;;;;;;36.90;99.90;;;;;;5052154;28;19987;-74
2022/08/23 12:37:17;;;;;;;;;;;34.50;99.90;;;;;;5052755;28;20418;-73
2022/08/23 12:39:49;;;;;;;;;;;34.10;99.90;;;;;;5048901;28;19932;-73
2022/08/23 12:42:18;;;;;;;;;;;34.30;99.90;;;;;;5048446;28;19931;-69
2022/08/23 12:44:46;;;;;;;;;;;33.90;99.90;;;;;;5051748;28;19925;-75
2022/08/23 12:47:15;;;;;;;;;;;33.70;99.90;;;;;;5053068;28;19928;-71
2022/08/23 12:49:42;;;;;;;;;;;33.20;99.90;;;;;;5051499;28;19925;-71
2022/08/23 12:52:10;;;;;;;;;;;32.40;99.90;;;;;;5052419;28;20423;-70
2022/08/23 12:54:38;;;;;;;;;;;32.70;99.90;;;;;;5063691;28;19935;-70
2022/08/23 12:57:10;;;;;;;;;;;33.70;99.90;;;;;;5057687;28;19948;-70
2022/08/23 12:59:38;;;;;;;;;;;34.40;99.90;;;;;;5036538;28;19939;-71
2022/08/23 13:02:08;;;;;;;;;;;34.70;99.90;;;;;;5050474;28;19925;-70
2022/08/23 13:04:35;;;;;;;;;;;35.80;99.90;;;;;;5052274;28;19933;-71
2022/08/23 13:07:05;;;;;;;;;;;36.80;99.90;;;;;;5049956;28;19955;-70
2022/08/23 13:09:33;;;;;;;;;;;36.60;99.90;;;;;;5046823;28;19925;-71
2022/08/23 13:12:01;;;;;;;;;;;36.00;99.90;;;;;;5057426;28;19968;-71
2022/08/23 13:14:37;;;;;;;;;;;35.70;99.90;;;;;;5061603;28;19932;-70
2022/08/23 13:17:16;;;;;;;;;;;35.00;99.90;;;;;;5050837;28;19956;-71
2022/08/23 13:19:42;;;;;;;;;;;34.50;99.90;;;;;;5046311;28;20282;-72
2022/08/23 13:22:10;;;;;;;;;;;34.10;99.90;;;;;;5052103;28;19925;-71
2022/08/23 13:24:39;;;;;;;;;;;33.30;99.90;;;;;;5045528;28;19933;-72
2022/08/23 13:27:14;;;;;;;;;;;32.60;99.90;;;;;;5048182;28;19925;-72
2022/08/23 13:29:53;;;;;;;;;;;32.40;99.90;;;;;;5045478;28;19925;-72
2022/08/23 13:32:32;;;;;;;;;;;32.20;99.90;;;;;;5066569;28;20032;-72
2022/08/23 13:35:17;;;;;;;;;;;32.10;99.90;;;;;;5047555;28;19925;-72
2022/08/23 13:37:45;;;;;;;;;;;32.50;99.90;;;;;;5040666;28;19933;-72
2022/08/23 13:40:22;;;;;;;;;;;33.10;99.90;;;;;;5039790;28;19952;-72
2022/08/23 13:42:52;;;;;;;;;;;33.00;99.90;;;;;;5050152;28;19932;-72
2022/08/23 13:45:23;;;;;;;;;;;32.90;99.90;;;;;;5044744;28;19940;-72
2022/08/23 13:47:50;;;;;;;;;;;32.60;99.90;;;;;;5050314;28;19928;-72
2022/08/23 13:50:23;;;;;;;;;;;32.70;99.90;;;;;;5056050;28;19936;-72
2022/08/23 13:52:50;;;;;;;;;;;32.80;99.90;;;;;;5045901;28;19925;-72
2022/08/23 13:55:16;;;;;;;;;;;33.10;99.90;;;;;;5056332;28;19952;-73
2022/08/23 13:57:43;;;;;;;;;;;33.10;99.90;;;;;;5058445;28;19924;-72
2022/08/23 14:00:10;;;;;;;;;;;33.00;99.90;;;;;;5047365;28;19925;-71
2022/08/23 14:02:39;;;;;;;;;;;33.50;99.90;;;;;;5051954;28;19932;-71
2022/08/23 14:05:07;;;;;;;;;;;34.40;99.90;;;;;;5051819;28;20396;-71
2022/08/23 14:07:35;;;;;;;;;;;34.50;99.90;;;;;;5045733;28;19959;-71
2022/08/23 14:10:02;;;;;;;;;;;34.30;99.90;;;;;;5049666;28;19925;-72
2022/08/23 14:12:30;;;;;;;;;;;35.40;99.90;;;;;;5050122;28;19925;-72
2022/08/23 14:14:57;;;;;;;;;;;36.30;99.90;;;;;;5045724;28;19925;-72
2022/08/23 14:17:23;;;;;;;;;;;36.50;99.90;;;;;;5042779;28;19975;-70
2022/08/23 14:19:52;;;;;;;;;;;36.10;99.90;;;;;;5063949;28;19925;-72
2022/08/23 14:22:19;;;;;;;;;;;35.20;99.90;;;;;;5041622;28;20292;-72
2022/08/23 14:24:45;;;;;;;;;;;35.20;99.90;;;;;;5048563;28;19924;-72
2022/08/23 14:27:13;;;;;;;;;;;35.50;99.90;;;;;;5044644;28;19929;-72
2022/08/23 14:29:40;;;;;;;;;;;35.30;99.90;;;;;;5050482;28;19990;-71
2022/08/23 14:32:07;;;;;;;;;;;35.40;99.90;;;;;;5050249;28;20401;-71
2022/08/23 14:34:33;;;;;;;;;;;35.10;99.90;;;;;;5051118;28;19924;-71
2022/08/23 14:37:02;;;;;;;;;;;35.10;99.90;;;;;;5040039;28;19925;-71
2022/08/23 14:39:28;;;;;;;;;;;35.00;99.90;;;;;;5036191;28;19925;-72
2022/08/23 14:41:55;;;;;;;;;;;34.80;99.90;;;;;;5045579;28;20408;-71
2022/08/23 14:44:22;;;;;;;;;;;34.50;99.90;;;;;;5051178;28;19925;-71
2022/08/23 14:46:49;;;;;;;;;;;34.20;99.90;;;;;;5046274;28;19979;-71